sensor_id;sensor_type;location;lat;lon;timestamp;pressure;altitude;pressure_sealevel;temperature;humidity
82949;BME280;72736;50.236;18.876;2024-01-30T00:03:02;100547.56;;;-1.47;74.99
82949;BME280;72736;50.236;18.876;2024-01-30T00:08:08;100548.75;;;-1.49;75.53
82949;BME280;72736;50.236;18.876;2024-01-30T00:13:14;100541.67;;;-1.51;75.37
82949;BME280;72736;50.236;18.876;2024-01-30T00:18:22;100542.14;;;-1.50;74.97
82949;BME280;72736;50.236;18.876;2024-01-30T00:23:27;100545.61;;;-1.49;75.16
82949;BME280;72736;50.236;18.876;2024-01-30T00:28:33;100541.11;;;-1.51;75.61
82949;BME280;72736;50.236;18.876;2024-01-30T00:33:39;100537.08;;;-1.53;75.85
82949;BME280;72736;50.236;18.876;2024-01-30T00:38:45;100540.02;;;-1.55;74.96
82949;BME280;72736;50.236;18.876;2024-01-30T00:43:50;100546.16;;;-1.59;75.37
82949;BME280;72736;50.236;18.876;2024-01-30T00:48:56;100540.88;;;-1.64;75.90
82949;BME280;72736;50.236;18.876;2024-01-30T00:54:02;100535.11;;;-1.66;75.46
82949;BME280;72736;50.236;18.876;2024-01-30T00:59:08;100535.73;;;-1.71;75.30
82949;BME280;72736;50.236;18.876;2024-01-30T01:04:14;100532.42;;;-1.74;75.24
82949;BME280;72736;50.236;18.876;2024-01-30T01:09:19;100534.39;;;-1.78;75.24
82949;BME280;72736;50.236;18.876;2024-01-30T01:14:25;100520.89;;;-1.83;75.01
82949;BME280;72736;50.236;18.876;2024-01-30T01:19:31;100519.59;;;-1.88;74.98
82949;BME280;72736;50.236;18.876;2024-01-30T01:24:37;100513.08;;;-1.93;75.16
82949;BME280;72736;50.236;18.876;2024-01-30T01:29:44;100504.79;;;-1.97;75.33
82949;BME280;72736;50.236;18.876;2024-01-30T01:34:50;100500.94;;;-2.00;74.65
82949;BME280;72736;50.236;18.876;2024-01-30T01:39:55;100496.93;;;-2.03;74.82
82949;BME280;72736;50.236;18.876;2024-01-30T01:45:01;100498.17;;;-2.07;74.89
82949;BME280;72736;50.236;18.876;2024-01-30T01:50:07;100502.33;;;-2.09;74.63
82949;BME280;72736;50.236;18.876;2024-01-30T01:55:14;100502.73;;;-2.10;74.30
82949;BME280;72736;50.236;18.876;2024-01-30T02:00:22;100498.38;;;-2.13;74.94
82949;BME280;72736;50.236;18.876;2024-01-30T02:05:28;100496.61;;;-2.16;74.87
82949;BME280;72736;50.236;18.876;2024-01-30T02:10:33;100493.36;;;-2.17;75.35
82949;BME280;72736;50.236;18.876;2024-01-30T02:15:39;100493.40;;;-2.18;75.01
82949;BME280;72736;50.236;18.876;2024-01-30T02:20:45;100493.52;;;-2.14;75.63
82949;BME280;72736;50.236;18.876;2024-01-30T02:25:52;100486.48;;;-2.10;75.10
82949;BME280;72736;50.236;18.876;2024-01-30T02:30:57;100477.90;;;-2.13;75.02
82949;BME280;72736;50.236;18.876;2024-01-30T02:36:03;100481.05;;;-2.19;75.07
82949;BME280;72736;50.236;18.876;2024-01-30T02:41:09;100484.23;;;-2.19;75.30
82949;BME280;72736;50.236;18.876;2024-01-30T02:46:15;100479.44;;;-2.18;75.66
82949;BME280;72736;50.236;18.876;2024-01-30T02:51:20;100480.02;;;-2.19;75.56
82949;BME280;72736;50.236;18.876;2024-01-30T02:56:26;100486.48;;;-2.18;76.28
82949;BME280;72736;50.236;18.876;2024-01-30T03:01:32;100484.67;;;-2.15;76.04
82949;BME280;72736;50.236;18.876;2024-01-30T03:06:38;100478.21;;;-2.10;76.28
82949;BME280;72736;50.236;18.876;2024-01-30T03:11:44;100480.11;;;-2.03;76.83
82949;BME280;72736;50.236;18.876;2024-01-30T03:16:49;100478.20;;;-2.01;76.38
82949;BME280;72736;50.236;18.876;2024-01-30T03:21:55;100475.81;;;-1.99;77.08
82949;BME280;72736;50.236;18.876;2024-01-30T03:27:01;100476.17;;;-1.96;76.68
82949;BME280;72736;50.236;18.876;2024-01-30T03:32:07;100473.55;;;-1.96;76.51
82949;BME280;72736;50.236;18.876;2024-01-30T03:37:12;100471.71;;;-1.98;76.58
82949;BME280;72736;50.236;18.876;2024-01-30T03:42:18;100476.89;;;-1.97;76.83
82949;BME280;72736;50.236;18.876;2024-01-30T03:47:24;100462.08;;;-1.95;77.07
82949;BME280;72736;50.236;18.876;2024-01-30T03:52:30;100466.23;;;-1.94;77.71
82949;BME280;72736;50.236;18.876;2024-01-30T03:57:35;100470.53;;;-1.93;77.19
82949;BME280;72736;50.236;18.876;2024-01-30T04:02:41;100468.89;;;-1.92;77.02
82949;BME280;72736;50.236;18.876;2024-01-30T04:07:47;100467.77;;;-1.91;77.42
82949;BME280;72736;50.236;18.876;2024-01-30T04:12:53;100462.73;;;-1.89;77.52
82949;BME280;72736;50.236;18.876;2024-01-30T04:18:00;100457.34;;;-1.89;77.31
82949;BME280;72736;50.236;18.876;2024-01-30T04:23:06;100458.39;;;-1.89;77.36
82949;BME280;72736;50.236;18.876;2024-01-30T04:28:11;100456.10;;;-1.89;77.50
82949;BME280;72736;50.236;18.876;2024-01-30T04:33:17;100456.23;;;-1.88;77.39
82949;BME280;72736;50.236;18.876;2024-01-30T04:38:23;100462.67;;;-1.84;77.57
82949;BME280;72736;50.236;18.876;2024-01-30T04:43:29;100460.68;;;-1.81;77.59
82949;BME280;72736;50.236;18.876;2024-01-30T04:48:35;100467.07;;;-1.76;77.34
82949;BME280;72736;50.236;18.876;2024-01-30T04:53:40;100471.59;;;-1.73;76.97
82949;BME280;72736;50.236;18.876;2024-01-30T04:58:46;100462.80;;;-1.70;77.30
82949;BME280;72736;50.236;18.876;2024-01-30T05:03:52;100460.63;;;-1.66;77.08
82949;BME280;72736;50.236;18.876;2024-01-30T05:08:58;100462.42;;;-1.63;77.62
82949;BME280;72736;50.236;18.876;2024-01-30T05:14:03;100458.38;;;-1.61;77.52
82949;BME280;72736;50.236;18.876;2024-01-30T05:19:09;100460.77;;;-1.57;77.08
82949;BME280;72736;50.236;18.876;2024-01-30T05:24:15;100464.70;;;-1.55;77.36
82949;BME280;72736;50.236;18.876;2024-01-30T05:29:24;100464.38;;;-1.53;77.32
82949;BME280;72736;50.236;18.876;2024-01-30T05:34:30;100464.11;;;-1.52;77.28
82949;BME280;72736;50.236;18.876;2024-01-30T05:39:35;100469.48;;;-1.51;77.77
82949;BME280;72736;50.236;18.876;2024-01-30T05:44:42;100473.89;;;-1.52;77.46
82949;BME280;72736;50.236;18.876;2024-01-30T05:49:48;100466.32;;;-1.53;77.09
82949;BME280;72736;50.236;18.876;2024-01-30T05:54:53;100465.15;;;-1.55;77.18
82949;BME280;72736;50.236;18.876;2024-01-30T05:59:59;100460.52;;;-1.56;77.20
82949;BME280;72736;50.236;18.876;2024-01-30T06:05:05;100462.29;;;-1.59;76.94
82949;BME280;72736;50.236;18.876;2024-01-30T06:10:11;100462.22;;;-1.63;76.52
82949;BME280;72736;50.236;18.876;2024-01-30T06:15:17;100456.84;;;-1.67;77.00
82949;BME280;72736;50.236;18.876;2024-01-30T06:20:24;100457.30;;;-1.69;76.76
82949;BME280;72736;50.236;18.876;2024-01-30T06:25:30;100457.99;;;-1.69;76.60
82949;BME280;72736;50.236;18.876;2024-01-30T06:30:36;100458.27;;;-1.70;77.49
82949;BME280;72736;50.236;18.876;2024-01-30T06:35:43;100460.58;;;-1.71;76.84
82949;BME280;72736;50.236;18.876;2024-01-30T06:40:50;100464.13;;;-1.72;76.78
82949;BME280;72736;50.236;18.876;2024-01-30T06:45:55;100463.23;;;-1.68;77.32
82949;BME280;72736;50.236;18.876;2024-01-30T06:51:01;100462.66;;;-1.65;77.07
82949;BME280;72736;50.236;18.876;2024-01-30T06:56:07;100465.03;;;-1.61;76.63
82949;BME280;72736;50.236;18.876;2024-01-30T07:01:14;100463.88;;;-1.56;76.78
82949;BME280;72736;50.236;18.876;2024-01-30T07:06:21;100473.06;;;-1.52;77.03
82949;BME280;72736;50.236;18.876;2024-01-30T07:11:27;100472.73;;;-1.47;76.85
82949;BME280;72736;50.236;18.876;2024-01-30T07:16:33;100470.64;;;-1.42;76.80
82949;BME280;72736;50.236;18.876;2024-01-30T07:21:38;100476.96;;;-1.36;76.65
82949;BME280;72736;50.236;18.876;2024-01-30T07:26:45;100486.45;;;-1.31;76.43
82949;BME280;72736;50.236;18.876;2024-01-30T07:31:51;100484.06;;;-1.24;77.08
82949;BME280;72736;50.236;18.876;2024-01-30T07:36:56;100479.20;;;-1.14;76.60
82949;BME280;72736;50.236;18.876;2024-01-30T07:42:03;100468.21;;;-1.01;77.88
82949;BME280;72736;50.236;18.876;2024-01-30T07:47:11;100473.83;;;-0.85;77.13
82949;BME280;72736;50.236;18.876;2024-01-30T07:52:17;100478.44;;;-0.67;77.32
82949;BME280;72736;50.236;18.876;2024-01-30T07:57:23;100481.75;;;-0.38;78.12
82949;BME280;72736;50.236;18.876;2024-01-30T08:02:29;100480.02;;;0.07;77.49
82949;BME280;72736;50.236;18.876;2024-01-30T08:07:35;100476.48;;;0.54;77.34
82949;BME280;72736;50.236;18.876;2024-01-30T08:12:41;100478.55;;;1.04;76.59
82949;BME280;72736;50.236;18.876;2024-01-30T08:17:47;100481.73;;;1.51;76.19
82949;BME280;72736;50.236;18.876;2024-01-30T08:22:52;100488.09;;;1.97;74.75
82949;BME280;72736;50.236;18.876;2024-01-30T08:27:58;100485.45;;;2.39;74.66
82949;BME280;72736;50.236;18.876;2024-01-30T08:33:04;100484.52;;;2.77;73.94
82949;BME280;72736;50.236;18.876;2024-01-30T08:38:10;100480.63;;;3.12;73.03
82949;BME280;72736;50.236;18.876;2024-01-30T08:43:16;100477.98;;;3.42;72.12
82949;BME280;72736;50.236;18.876;2024-01-30T08:48:23;100482.82;;;3.71;71.68
82949;BME280;72736;50.236;18.876;2024-01-30T08:53:29;100480.92;;;3.97;70.68
82949;BME280;72736;50.236;18.876;2024-01-30T08:58:36;100479.82;;;4.20;69.91
82949;BME280;72736;50.236;18.876;2024-01-30T09:03:42;100480.58;;;4.38;69.03
82949;BME280;72736;50.236;18.876;2024-01-30T09:08:50;100483.08;;;4.50;68.12
82949;BME280;72736;50.236;18.876;2024-01-30T09:13:55;100479.02;;;4.65;67.89
82949;BME280;72736;50.236;18.876;2024-01-30T09:19:01;100477.27;;;4.81;67.47
82949;BME280;72736;50.236;18.876;2024-01-30T09:24:08;100474.48;;;4.89;66.22
82949;BME280;72736;50.236;18.876;2024-01-30T09:29:12;100477.42;;;4.97;66.29
82949;BME280;72736;50.236;18.876;2024-01-30T09:34:18;100472.22;;;5.00;65.65
82949;BME280;72736;50.236;18.876;2024-01-30T09:39:24;100475.67;;;5.03;65.39
82949;BME280;72736;50.236;18.876;2024-01-30T09:44:30;100476.04;;;5.07;65.12
82949;BME280;72736;50.236;18.876;2024-01-30T09:49:36;100471.52;;;5.10;64.39
82949;BME280;72736;50.236;18.876;2024-01-30T09:54:41;100469.33;;;5.12;63.84
82949;BME280;72736;50.236;18.876;2024-01-30T09:59:47;100459.03;;;5.13;63.20
82949;BME280;72736;50.236;18.876;2024-01-30T10:04:54;100455.14;;;5.12;63.10
82949;BME280;72736;50.236;18.876;2024-01-30T10:10:00;100458.04;;;5.14;63.24
82949;BME280;72736;50.236;18.876;2024-01-30T10:15:08;100450.05;;;5.18;62.70
82949;BME280;72736;50.236;18.876;2024-01-30T10:20:15;100448.52;;;5.25;62.75
82949;BME280;72736;50.236;18.876;2024-01-30T10:25:24;100441.65;;;5.34;62.53
82949;BME280;72736;50.236;18.876;2024-01-30T10:30:31;100440.46;;;5.39;61.88
82949;BME280;72736;50.236;18.876;2024-01-30T10:35:37;100433.77;;;5.47;62.00
82949;BME280;72736;50.236;18.876;2024-01-30T10:40:46;100426.11;;;5.56;61.47
82949;BME280;72736;50.236;18.876;2024-01-30T10:45:55;100421.99;;;5.65;61.11
82949;BME280;72736;50.236;18.876;2024-01-30T10:51:04;100415.36;;;5.71;60.26
82949;BME280;72736;50.236;18.876;2024-01-30T10:56:11;100414.27;;;5.75;59.94
82949;BME280;72736;50.236;18.876;2024-01-30T11:01:18;100407.09;;;5.78;59.51
82949;BME280;72736;50.236;18.876;2024-01-30T11:06:28;100402.83;;;5.80;59.39
82949;BME280;72736;50.236;18.876;2024-01-30T11:11:51;100396.89;;;5.83;59.02
82949;BME280;72736;50.236;18.876;2024-01-30T11:17:00;100391.05;;;5.84;59.14
82949;BME280;72736;50.236;18.876;2024-01-30T11:22:10;100386.09;;;5.88;58.76
82949;BME280;72736;50.236;18.876;2024-01-30T11:27:16;100383.89;;;5.91;58.85
82949;BME280;72736;50.236;18.876;2024-01-30T11:32:24;100387.60;;;5.94;59.05
82949;BME280;72736;50.236;18.876;2024-01-30T11:37:32;100380.63;;;5.97;59.25
82949;BME280;72736;50.236;18.876;2024-01-30T11:42:42;100377.19;;;6.04;59.40
82949;BME280;72736;50.236;18.876;2024-01-30T11:47:48;100370.78;;;6.07;59.44
82949;BME280;72736;50.236;18.876;2024-01-30T11:52:55;100363.16;;;6.11;59.46
82949;BME280;72736;50.236;18.876;2024-01-30T11:58:02;100356.21;;;6.13;59.26
82949;BME280;72736;50.236;18.876;2024-01-30T12:03:12;100347.14;;;6.13;59.34
82949;BME280;72736;50.236;18.876;2024-01-30T12:08:18;100340.27;;;6.15;59.31
82949;BME280;72736;50.236;18.876;2024-01-30T12:13:24;100331.66;;;6.18;59.31
82949;BME280;72736;50.236;18.876;2024-01-30T12:18:36;100327.86;;;6.21;58.91
82949;BME280;72736;50.236;18.876;2024-01-30T12:23:42;100320.80;;;6.20;58.92
82949;BME280;72736;50.236;18.876;2024-01-30T12:28:49;100315.31;;;6.18;58.84
82949;BME280;72736;50.236;18.876;2024-01-30T12:33:55;100309.77;;;6.17;58.91
82949;BME280;72736;50.236;18.876;2024-01-30T12:39:03;100303.36;;;6.15;58.54
82949;BME280;72736;50.236;18.876;2024-01-30T12:44:08;100297.63;;;6.14;58.90
82949;BME280;72736;50.236;18.876;2024-01-30T12:49:12;100299.48;;;6.13;58.54
82949;BME280;72736;50.236;18.876;2024-01-30T12:54:18;100291.55;;;6.11;58.69
82949;BME280;72736;50.236;18.876;2024-01-30T12:59:25;100294.02;;;6.09;58.84
82949;BME280;72736;50.236;18.876;2024-01-30T13:04:31;100288.76;;;6.08;58.98
82949;BME280;72736;50.236;18.876;2024-01-30T13:09:37;100290.77;;;6.08;58.65
82949;BME280;72736;50.236;18.876;2024-01-30T13:14:43;100292.05;;;6.06;59.24
82949;BME280;72736;50.236;18.876;2024-01-30T13:19:49;100293.36;;;6.05;58.84
82949;BME280;72736;50.236;18.876;2024-01-30T13:24:55;100290.05;;;6.01;58.86
82949;BME280;72736;50.236;18.876;2024-01-30T13:30:00;100291.60;;;5.97;58.72
82949;BME280;72736;50.236;18.876;2024-01-30T13:35:06;100290.57;;;5.95;59.08
82949;BME280;72736;50.236;18.876;2024-01-30T13:40:11;100285.20;;;5.92;59.05
82949;BME280;72736;50.236;18.876;2024-01-30T13:45:19;100278.79;;;5.87;59.24
82949;BME280;72736;50.236;18.876;2024-01-30T13:50:27;100280.43;;;5.82;58.93
82949;BME280;72736;50.236;18.876;2024-01-30T13:55:34;100277.63;;;5.78;59.04
82949;BME280;72736;50.236;18.876;2024-01-30T14:00:40;100271.70;;;5.74;59.01
82949;BME280;72736;50.236;18.876;2024-01-30T14:05:46;100265.52;;;5.70;59.32
82949;BME280;72736;50.236;18.876;2024-01-30T14:10:52;100268.46;;;5.67;59.34
82949;BME280;72736;50.236;18.876;2024-01-30T14:15:57;100267.52;;;5.62;59.30
82949;BME280;72736;50.236;18.876;2024-01-30T14:21:04;100269.52;;;5.57;59.67
82949;BME280;72736;50.236;18.876;2024-01-30T14:26:11;100268.01;;;5.53;59.55
82949;BME280;72736;50.236;18.876;2024-01-30T14:31:16;100273.29;;;5.50;59.69
82949;BME280;72736;50.236;18.876;2024-01-30T14:36:23;100270.84;;;5.44;59.74
82949;BME280;72736;50.236;18.876;2024-01-30T14:41:32;100268.98;;;5.39;59.94
82949;BME280;72736;50.236;18.876;2024-01-30T14:46:38;100260.61;;;5.36;60.17
82949;BME280;72736;50.236;18.876;2024-01-30T14:51:43;100256.49;;;5.31;60.58
82949;BME280;72736;50.236;18.876;2024-01-30T14:56:49;100258.73;;;5.26;60.98
82949;BME280;72736;50.236;18.876;2024-01-30T15:01:57;100254.66;;;5.20;60.77
82949;BME280;72736;50.236;18.876;2024-01-30T15:07:06;100255.39;;;5.14;60.73
82949;BME280;72736;50.236;18.876;2024-01-30T15:12:12;100260.11;;;5.07;60.67
82949;BME280;72736;50.236;18.876;2024-01-30T15:17:17;100262.38;;;5.00;60.40
82949;BME280;72736;50.236;18.876;2024-01-30T15:22:22;100254.39;;;4.93;60.96
82949;BME280;72736;50.236;18.876;2024-01-30T15:27:28;100259.36;;;4.85;60.82
82949;BME280;72736;50.236;18.876;2024-01-30T15:32:34;100257.30;;;4.77;61.07
82949;BME280;72736;50.236;18.876;2024-01-30T15:37:40;100258.18;;;4.69;60.90
82949;BME280;72736;50.236;18.876;2024-01-30T15:42:46;100257.75;;;4.62;61.34
82949;BME280;72736;50.236;18.876;2024-01-30T15:47:51;100256.18;;;4.55;61.13
82949;BME280;72736;50.236;18.876;2024-01-30T15:52:57;100262.33;;;4.47;61.41
82949;BME280;72736;50.236;18.876;2024-01-30T15:58:04;100264.84;;;4.41;61.31
82949;BME280;72736;50.236;18.876;2024-01-30T16:03:11;100268.13;;;4.34;61.38
82949;BME280;72736;50.236;18.876;2024-01-30T16:08:16;100268.30;;;4.26;61.52
82949;BME280;72736;50.236;18.876;2024-01-30T16:13:22;100270.21;;;4.19;61.49
82949;BME280;72736;50.236;18.876;2024-01-30T16:18:28;100269.64;;;4.12;61.61
82949;BME280;72736;50.236;18.876;2024-01-30T16:23:35;100265.14;;;4.04;61.95
82949;BME280;72736;50.236;18.876;2024-01-30T16:28:41;100267.00;;;3.99;61.97
82949;BME280;72736;50.236;18.876;2024-01-30T16:33:47;100264.52;;;3.94;61.88
82949;BME280;72736;50.236;18.876;2024-01-30T16:38:53;100262.44;;;3.89;61.72
82949;BME280;72736;50.236;18.876;2024-01-30T16:44:01;100265.64;;;3.87;61.98
82949;BME280;72736;50.236;18.876;2024-01-30T16:49:07;100259.20;;;3.84;61.89
82949;BME280;72736;50.236;18.876;2024-01-30T16:54:13;100262.83;;;3.81;61.91
82949;BME280;72736;50.236;18.876;2024-01-30T16:59:21;100261.66;;;3.76;61.95
82949;BME280;72736;50.236;18.876;2024-01-30T17:04:27;100256.55;;;3.72;62.08
82949;BME280;72736;50.236;18.876;2024-01-30T17:09:33;100257.88;;;3.69;61.92
82949;BME280;72736;50.236;18.876;2024-01-30T17:14:39;100256.61;;;3.65;62.18
82949;BME280;72736;50.236;18.876;2024-01-30T17:19:44;100251.38;;;3.62;62.25
82949;BME280;72736;50.236;18.876;2024-01-30T17:24:50;100252.05;;;3.59;61.76
82949;BME280;72736;50.236;18.876;2024-01-30T17:29:57;100252.86;;;3.53;62.03
82949;BME280;72736;50.236;18.876;2024-01-30T17:35:04;100254.02;;;3.50;62.38
82949;BME280;72736;50.236;18.876;2024-01-30T17:40:11;100251.10;;;3.48;62.37
82949;BME280;72736;50.236;18.876;2024-01-30T17:45:17;100250.20;;;3.44;62.42
82949;BME280;72736;50.236;18.876;2024-01-30T17:50:25;100246.66;;;3.40;62.68
82949;BME280;72736;50.236;18.876;2024-01-30T17:55:31;100248.80;;;3.35;62.79
82949;BME280;72736;50.236;18.876;2024-01-30T18:00:36;100253.89;;;3.30;62.11
82949;BME280;72736;50.236;18.876;2024-01-30T18:05:42;100255.87;;;3.25;62.27
82949;BME280;72736;50.236;18.876;2024-01-30T18:10:48;100257.38;;;3.20;62.45
82949;BME280;72736;50.236;18.876;2024-01-30T18:15:54;100257.69;;;3.16;62.31
82949;BME280;72736;50.236;18.876;2024-01-30T18:21:00;100255.48;;;3.13;62.56
82949;BME280;72736;50.236;18.876;2024-01-30T18:26:05;100263.09;;;3.11;62.44
82949;BME280;72736;50.236;18.876;2024-01-30T18:31:11;100259.27;;;3.08;62.20
82949;BME280;72736;50.236;18.876;2024-01-30T18:36:17;100255.09;;;3.04;62.65
82949;BME280;72736;50.236;18.876;2024-01-30T18:41:22;100252.33;;;3.01;62.27
82949;BME280;72736;50.236;18.876;2024-01-30T18:46:28;100250.20;;;2.96;62.28
82949;BME280;72736;50.236;18.876;2024-01-30T18:51:35;100250.52;;;2.93;62.09
82949;BME280;72736;50.236;18.876;2024-01-30T18:56:41;100252.48;;;2.90;61.81
82949;BME280;72736;50.236;18.876;2024-01-30T19:01:48;100253.98;;;2.87;62.02
82949;BME280;72736;50.236;18.876;2024-01-30T19:06:53;100261.34;;;2.84;61.97
82949;BME280;72736;50.236;18.876;2024-01-30T19:11:59;100262.01;;;2.80;61.85
82949;BME280;72736;50.236;18.876;2024-01-30T19:17:06;100261.70;;;2.77;62.15
82949;BME280;72736;50.236;18.876;2024-01-30T19:22:11;100260.50;;;2.75;61.89
82949;BME280;72736;50.236;18.876;2024-01-30T19:27:17;100259.48;;;2.70;61.96
82949;BME280;72736;50.236;18.876;2024-01-30T19:32:23;100260.26;;;2.63;61.84
82949;BME280;72736;50.236;18.876;2024-01-30T19:37:29;100261.25;;;2.55;62.32
82949;BME280;72736;50.236;18.876;2024-01-30T19:42:36;100256.14;;;2.47;62.13
82949;BME280;72736;50.236;18.876;2024-01-30T19:47:42;100260.75;;;2.40;61.94
82949;BME280;72736;50.236;18.876;2024-01-30T19:52:48;100262.36;;;2.36;62.25
82949;BME280;72736;50.236;18.876;2024-01-30T19:57:54;100262.39;;;2.33;61.59
82949;BME280;72736;50.236;18.876;2024-01-30T20:03:00;100256.80;;;2.33;61.76
82949;BME280;72736;50.236;18.876;2024-01-30T20:08:06;100256.23;;;2.31;61.47
82949;BME280;72736;50.236;18.876;2024-01-30T20:13:12;100258.25;;;2.30;61.74
82949;BME280;72736;50.236;18.876;2024-01-30T20:18:18;100258.02;;;2.31;61.78
82949;BME280;72736;50.236;18.876;2024-01-30T20:23:23;100259.20;;;2.31;61.63
82949;BME280;72736;50.236;18.876;2024-01-30T20:28:29;100252.56;;;2.29;61.68
82949;BME280;72736;50.236;18.876;2024-01-30T20:33:36;100251.23;;;2.25;61.67
82949;BME280;72736;50.236;18.876;2024-01-30T20:38:42;100246.87;;;2.22;61.50
82949;BME280;72736;50.236;18.876;2024-01-30T20:43:48;100237.08;;;2.20;61.60
82949;BME280;72736;50.236;18.876;2024-01-30T20:48:53;100237.39;;;2.16;61.51
82949;BME280;72736;50.236;18.876;2024-01-30T20:53:59;100229.70;;;2.15;61.35
82949;BME280;72736;50.236;18.876;2024-01-30T20:59:05;100227.41;;;2.15;61.22
82949;BME280;72736;50.236;18.876;2024-01-30T21:04:11;100223.56;;;2.14;61.57
82949;BME280;72736;50.236;18.876;2024-01-30T21:09:17;100218.29;;;2.16;61.13
82949;BME280;72736;50.236;18.876;2024-01-30T21:14:23;100216.17;;;2.19;61.04
82949;BME280;72736;50.236;18.876;2024-01-30T21:19:29;100219.27;;;2.19;60.94
82949;BME280;72736;50.236;18.876;2024-01-30T21:24:34;100216.33;;;2.21;60.85
82949;BME280;72736;50.236;18.876;2024-01-30T21:29:41;100221.35;;;2.24;61.15
82949;BME280;72736;50.236;18.876;2024-01-30T21:34:47;100212.05;;;2.26;60.85
82949;BME280;72736;50.236;18.876;2024-01-30T21:39:53;100214.01;;;2.28;60.96
82949;BME280;72736;50.236;18.876;2024-01-30T21:44:59;100219.05;;;2.29;61.09
82949;BME280;72736;50.236;18.876;2024-01-30T21:50:06;100225.87;;;2.32;60.93
82949;BME280;72736;50.236;18.876;2024-01-30T21:55:12;100225.08;;;2.33;60.97
82949;BME280;72736;50.236;18.876;2024-01-30T22:00:18;100223.28;;;2.33;61.20
82949;BME280;72736;50.236;18.876;2024-01-30T22:05:24;100227.50;;;2.33;61.26
82949;BME280;72736;50.236;18.876;2024-01-30T22:10:29;100234.45;;;2.32;61.14
82949;BME280;72736;50.236;18.876;2024-01-30T22:15:35;100233.83;;;2.29;61.43
82949;BME280;72736;50.236;18.876;2024-01-30T22:20:42;100234.05;;;2.29;61.57
82949;BME280;72736;50.236;18.876;2024-01-30T22:25:48;100230.73;;;2.28;61.80
82949;BME280;72736;50.236;18.876;2024-01-30T22:30:53;100237.30;;;2.28;62.21
82949;BME280;72736;50.236;18.876;2024-01-30T22:35:59;100239.80;;;2.27;62.07
82949;BME280;72736;50.236;18.876;2024-01-30T22:41:05;100234.48;;;2.26;62.53
82949;BME280;72736;50.236;18.876;2024-01-30T22:46:11;100233.74;;;2.23;62.57
82949;BME280;72736;50.236;18.876;2024-01-30T22:51:17;100230.27;;;2.23;62.86
82949;BME280;72736;50.236;18.876;2024-01-30T22:56:22;100234.70;;;2.23;63.03
82949;BME280;72736;50.236;18.876;2024-01-30T23:01:29;100234.27;;;2.21;63.18
82949;BME280;72736;50.236;18.876;2024-01-30T23:06:36;100231.23;;;2.22;62.99
82949;BME280;72736;50.236;18.876;2024-01-30T23:11:42;100226.73;;;2.23;63.22
82949;BME280;72736;50.236;18.876;2024-01-30T23:16:48;100229.67;;;2.23;63.08
82949;BME280;72736;50.236;18.876;2024-01-30T23:21:54;100236.98;;;2.25;63.38
82949;BME280;72736;50.236;18.876;2024-01-30T23:26:59;100238.05;;;2.25;63.40
82949;BME280;72736;50.236;18.876;2024-01-30T23:32:07;100235.42;;;2.25;63.72
82949;BME280;72736;50.236;18.876;2024-01-30T23:37:12;100237.48;;;2.26;63.69
82949;BME280;72736;50.236;18.876;2024-01-30T23:42:18;100232.24;;;2.25;63.49
82949;BME280;72736;50.236;18.876;2024-01-30T23:47:24;100232.85;;;2.24;63.77
82949;BME280;72736;50.236;18.876;2024-01-30T23:52:32;100234.48;;;2.23;63.80
82949;BME280;72736;50.236;18.876;2024-01-30T23:57:38;100238.19;;;2.23;64.15
